sensor_id;sensor_type;location;lat;lon;timestamp;P1;durP1;ratioP1;P2;durP2;ratioP2
19705;SDS011;10003;52.506;4.700;2023-08-07T00:00:15;14.70;;;4.10;;
19705;SDS011;10003;52.506;4.700;2023-08-07T00:02:44;3.53;;;1.80;;
19705;SDS011;10003;52.506;4.700;2023-08-07T00:05:12;3.07;;;2.27;;
19705;SDS011;10003;52.506;4.700;2023-08-07T00:07:41;8.10;;;3.17;;
19705;SDS011;10003;52.506;4.700;2023-08-07T00:10:09;7.33;;;2.93;;
19705;SDS011;10003;52.506;4.700;2023-08-07T00:12:37;5.17;;;1.93;;
19705;SDS011;10003;52.506;4.700;2023-08-07T00:15:06;8.00;;;3.17;;
19705;SDS011;10003;52.506;4.700;2023-08-07T00:17:36;4.70;;;2.43;;
19705;SDS011;10003;52.506;4.700;2023-08-07T00:20:05;10.27;;;3.63;;
19705;SDS011;10003;52.506;4.700;2023-08-07T00:22:34;0.40;;;0.40;;
19705;SDS011;10003;52.506;4.700;2023-08-07T00:25:02;0.30;;;0.30;;
19705;SDS011;10003;52.506;4.700;2023-08-07T00:27:31;0.30;;;0.30;;
19705;SDS011;10003;52.506;4.700;2023-08-07T00:30:00;0.40;;;0.40;;
19705;SDS011;10003;52.506;4.700;2023-08-07T00:32:31;0.30;;;0.30;;
19705;SDS011;10003;52.506;4.700;2023-08-07T00:35:01;0.40;;;0.40;;
19705;SDS011;10003;52.506;4.700;2023-08-07T00:37:30;0.30;;;0.30;;
19705;SDS011;10003;52.506;4.700;2023-08-07T00:39:59;10.60;;;4.07;;
19705;SDS011;10003;52.506;4.700;2023-08-07T00:42:27;12.17;;;3.47;;
19705;SDS011;10003;52.506;4.700;2023-08-07T00:44:56;10.87;;;3.30;;
19705;SDS011;10003;52.506;4.700;2023-08-07T00:47:25;7.30;;;3.60;;
19705;SDS011;10003;52.506;4.700;2023-08-07T00:49:54;5.47;;;2.90;;
19705;SDS011;10003;52.506;4.700;2023-08-07T00:52:25;7.03;;;2.53;;
19705;SDS011;10003;52.506;4.700;2023-08-07T00:54:54;6.67;;;3.50;;
19705;SDS011;10003;52.506;4.700;2023-08-07T00:57:22;2.57;;;2.00;;
19705;SDS011;10003;52.506;4.700;2023-08-07T00:59:51;35.93;;;3.27;;
19705;SDS011;10003;52.506;4.700;2023-08-07T01:02:19;10.03;;;3.00;;
19705;SDS011;10003;52.506;4.700;2023-08-07T01:04:48;8.70;;;3.23;;
19705;SDS011;10003;52.506;4.700;2023-08-07T01:07:17;7.83;;;4.33;;
19705;SDS011;10003;52.506;4.700;2023-08-07T01:09:47;7.67;;;2.20;;
19705;SDS011;10003;52.506;4.700;2023-08-07T01:12:16;3.37;;;1.87;;
19705;SDS011;10003;52.506;4.700;2023-08-07T01:14:49;2.57;;;2.07;;
19705;SDS011;10003;52.506;4.700;2023-08-07T01:17:20;7.40;;;2.53;;
19705;SDS011;10003;52.506;4.700;2023-08-07T01:19:49;9.53;;;4.17;;
19705;SDS011;10003;52.506;4.700;2023-08-07T01:22:19;5.63;;;3.17;;
19705;SDS011;10003;52.506;4.700;2023-08-07T01:24:49;3.13;;;1.23;;
19705;SDS011;10003;52.506;4.700;2023-08-07T01:27:22;10.57;;;2.80;;
19705;SDS011;10003;52.506;4.700;2023-08-07T01:29:54;4.60;;;2.90;;
19705;SDS011;10003;52.506;4.700;2023-08-07T01:32:26;5.37;;;3.17;;
19705;SDS011;10003;52.506;4.700;2023-08-07T01:34:56;8.40;;;2.33;;
19705;SDS011;10003;52.506;4.700;2023-08-07T01:37:26;16.47;;;3.07;;
19705;SDS011;10003;52.506;4.700;2023-08-07T01:39:56;11.87;;;2.83;;
19705;SDS011;10003;52.506;4.700;2023-08-07T01:42:25;5.83;;;2.27;;
19705;SDS011;10003;52.506;4.700;2023-08-07T01:44:54;3.43;;;1.67;;
19705;SDS011;10003;52.506;4.700;2023-08-07T01:47:22;6.93;;;2.00;;
19705;SDS011;10003;52.506;4.700;2023-08-07T01:49:51;7.80;;;2.60;;
19705;SDS011;10003;52.506;4.700;2023-08-07T01:52:20;5.03;;;1.87;;
19705;SDS011;10003;52.506;4.700;2023-08-07T01:54:50;3.40;;;3.10;;
19705;SDS011;10003;52.506;4.700;2023-08-07T01:57:18;11.70;;;3.87;;
19705;SDS011;10003;52.506;4.700;2023-08-07T01:59:46;4.90;;;2.57;;
19705;SDS011;10003;52.506;4.700;2023-08-07T02:02:15;12.30;;;3.77;;
19705;SDS011;10003;52.506;4.700;2023-08-07T02:04:43;3.27;;;3.00;;
19705;SDS011;10003;52.506;4.700;2023-08-07T02:07:12;3.43;;;1.90;;
19705;SDS011;10003;52.506;4.700;2023-08-07T02:09:40;9.27;;;3.00;;
19705;SDS011;10003;52.506;4.700;2023-08-07T02:12:10;10.17;;;3.90;;
19705;SDS011;10003;52.506;4.700;2023-08-07T02:14:39;3.83;;;2.33;;
19705;SDS011;10003;52.506;4.700;2023-08-07T02:17:07;5.27;;;1.80;;
19705;SDS011;10003;52.506;4.700;2023-08-07T02:19:35;5.07;;;2.93;;
19705;SDS011;10003;52.506;4.700;2023-08-07T02:22:04;4.37;;;2.67;;
19705;SDS011;10003;52.506;4.700;2023-08-07T02:24:33;5.10;;;2.17;;
19705;SDS011;10003;52.506;4.700;2023-08-07T02:27:01;3.60;;;2.23;;
19705;SDS011;10003;52.506;4.700;2023-08-07T02:29:31;3.10;;;2.00;;
19705;SDS011;10003;52.506;4.700;2023-08-07T02:32:01;0.30;;;0.30;;
19705;SDS011;10003;52.506;4.700;2023-08-07T02:34:30;0.30;;;0.30;;
19705;SDS011;10003;52.506;4.700;2023-08-07T02:36:58;0.40;;;0.40;;
19705;SDS011;10003;52.506;4.700;2023-08-07T02:39:27;0.40;;;0.40;;
19705;SDS011;10003;52.506;4.700;2023-08-07T02:41:55;0.30;;;0.30;;
19705;SDS011;10003;52.506;4.700;2023-08-07T02:44:23;0.40;;;0.40;;
19705;SDS011;10003;52.506;4.700;2023-08-07T02:46:53;0.30;;;0.30;;
19705;SDS011;10003;52.506;4.700;2023-08-07T02:49:22;0.30;;;0.30;;
19705;SDS011;10003;52.506;4.700;2023-08-07T02:51:51;0.30;;;0.30;;
19705;SDS011;10003;52.506;4.700;2023-08-07T02:54:19;0.30;;;0.30;;
19705;SDS011;10003;52.506;4.700;2023-08-07T02:56:48;0.30;;;0.30;;
19705;SDS011;10003;52.506;4.700;2023-08-07T02:59:16;0.30;;;0.30;;
19705;SDS011;10003;52.506;4.700;2023-08-07T03:01:47;0.30;;;0.30;;
19705;SDS011;10003;52.506;4.700;2023-08-07T03:04:17;0.30;;;0.30;;
19705;SDS011;10003;52.506;4.700;2023-08-07T03:06:46;0.30;;;0.30;;
19705;SDS011;10003;52.506;4.700;2023-08-07T03:09:14;0.40;;;0.40;;
19705;SDS011;10003;52.506;4.700;2023-08-07T03:11:43;0.40;;;0.40;;
19705;SDS011;10003;52.506;4.700;2023-08-07T03:14:11;0.30;;;0.30;;
19705;SDS011;10003;52.506;4.700;2023-08-07T03:16:40;0.30;;;0.30;;
19705;SDS011;10003;52.506;4.700;2023-08-07T03:19:08;0.30;;;0.30;;
19705;SDS011;10003;52.506;4.700;2023-08-07T03:21:38;0.30;;;0.30;;
19705;SDS011;10003;52.506;4.700;2023-08-07T03:24:06;0.40;;;0.40;;
19705;SDS011;10003;52.506;4.700;2023-08-07T03:26:38;0.40;;;0.40;;
19705;SDS011;10003;52.506;4.700;2023-08-07T03:29:07;0.40;;;0.40;;
19705;SDS011;10003;52.506;4.700;2023-08-07T03:31:35;0.30;;;0.30;;
19705;SDS011;10003;52.506;4.700;2023-08-07T03:34:04;0.40;;;0.40;;
19705;SDS011;10003;52.506;4.700;2023-08-07T03:36:32;0.40;;;0.40;;
19705;SDS011;10003;52.506;4.700;2023-08-07T03:39:02;0.30;;;0.30;;
19705;SDS011;10003;52.506;4.700;2023-08-07T03:41:31;0.40;;;0.40;;
19705;SDS011;10003;52.506;4.700;2023-08-07T03:43:59;0.40;;;0.40;;
19705;SDS011;10003;52.506;4.700;2023-08-07T03:46:28;0.40;;;0.40;;
19705;SDS011;10003;52.506;4.700;2023-08-07T03:48:56;0.40;;;0.40;;
19705;SDS011;10003;52.506;4.700;2023-08-07T03:51:24;4.10;;;2.33;;
19705;SDS011;10003;52.506;4.700;2023-08-07T03:53:53;9.17;;;3.87;;
19705;SDS011;10003;52.506;4.700;2023-08-07T03:56:23;6.47;;;2.90;;
19705;SDS011;10003;52.506;4.700;2023-08-07T03:58:51;11.93;;;3.87;;
19705;SDS011;10003;52.506;4.700;2023-08-07T04:01:20;5.27;;;3.43;;
19705;SDS011;10003;52.506;4.700;2023-08-07T04:03:48;10.63;;;4.03;;
19705;SDS011;10003;52.506;4.700;2023-08-07T04:06:17;13.03;;;3.43;;
19705;SDS011;10003;52.506;4.700;2023-08-07T04:08:47;11.30;;;3.37;;
19705;SDS011;10003;52.506;4.700;2023-08-07T04:11:15;10.53;;;4.63;;
19705;SDS011;10003;52.506;4.700;2023-08-07T04:13:45;8.40;;;3.60;;
19705;SDS011;10003;52.506;4.700;2023-08-07T04:16:13;9.57;;;3.23;;
19705;SDS011;10003;52.506;4.700;2023-08-07T04:18:43;8.03;;;3.53;;
19705;SDS011;10003;52.506;4.700;2023-08-07T04:21:11;1.50;;;1.40;;
19705;SDS011;10003;52.506;4.700;2023-08-07T04:23:40;6.23;;;2.80;;
19705;SDS011;10003;52.506;4.700;2023-08-07T04:26:09;15.27;;;4.23;;
19705;SDS011;10003;52.506;4.700;2023-08-07T04:28:37;16.40;;;3.57;;
19705;SDS011;10003;52.506;4.700;2023-08-07T04:31:07;14.60;;;3.73;;
19705;SDS011;10003;52.506;4.700;2023-08-07T04:33:35;8.80;;;3.83;;
19705;SDS011;10003;52.506;4.700;2023-08-07T04:36:04;21.03;;;4.87;;
19705;SDS011;10003;52.506;4.700;2023-08-07T04:38:33;11.37;;;4.50;;
19705;SDS011;10003;52.506;4.700;2023-08-07T04:41:01;9.87;;;3.97;;
19705;SDS011;10003;52.506;4.700;2023-08-07T04:43:30;9.67;;;3.80;;
19705;SDS011;10003;52.506;4.700;2023-08-07T04:45:59;5.77;;;3.90;;
19705;SDS011;10003;52.506;4.700;2023-08-07T04:48:29;4.87;;;2.90;;
19705;SDS011;10003;52.506;4.700;2023-08-07T04:50:58;4.80;;;3.10;;
19705;SDS011;10003;52.506;4.700;2023-08-07T04:53:26;5.17;;;2.70;;
19705;SDS011;10003;52.506;4.700;2023-08-07T04:55:54;6.90;;;3.07;;
19705;SDS011;10003;52.506;4.700;2023-08-07T04:58:23;10.40;;;3.77;;
19705;SDS011;10003;52.506;4.700;2023-08-07T05:00:54;14.90;;;4.07;;
19705;SDS011;10003;52.506;4.700;2023-08-07T05:03:23;10.30;;;3.13;;
19705;SDS011;10003;52.506;4.700;2023-08-07T05:05:59;1.87;;;1.47;;
19705;SDS011;10003;52.506;4.700;2023-08-07T05:08:27;4.93;;;2.07;;
19705;SDS011;10003;52.506;4.700;2023-08-07T05:10:56;4.60;;;2.73;;
19705;SDS011;10003;52.506;4.700;2023-08-07T05:13:24;4.73;;;2.87;;
19705;SDS011;10003;52.506;4.700;2023-08-07T05:15:53;10.40;;;2.83;;
19705;SDS011;10003;52.506;4.700;2023-08-07T05:18:21;8.80;;;2.77;;
19705;SDS011;10003;52.506;4.700;2023-08-07T05:20:50;2.17;;;2.03;;
19705;SDS011;10003;52.506;4.700;2023-08-07T05:23:20;4.53;;;2.17;;
19705;SDS011;10003;52.506;4.700;2023-08-07T05:25:48;4.93;;;2.47;;
19705;SDS011;10003;52.506;4.700;2023-08-07T05:28:17;2.37;;;1.23;;
19705;SDS011;10003;52.506;4.700;2023-08-07T05:30:45;10.70;;;3.13;;
19705;SDS011;10003;52.506;4.700;2023-08-07T05:33:14;5.57;;;2.37;;
19705;SDS011;10003;52.506;4.700;2023-08-07T05:35:42;11.63;;;3.57;;
19705;SDS011;10003;52.506;4.700;2023-08-07T05:38:11;10.83;;;3.37;;
19705;SDS011;10003;52.506;4.700;2023-08-07T05:40:41;8.70;;;2.80;;
19705;SDS011;10003;52.506;4.700;2023-08-07T05:43:09;6.83;;;2.90;;
19705;SDS011;10003;52.506;4.700;2023-08-07T05:45:41;9.83;;;2.80;;
19705;SDS011;10003;52.506;4.700;2023-08-07T05:48:12;11.80;;;1.70;;
19705;SDS011;10003;52.506;4.700;2023-08-07T05:50:41;15.57;;;3.57;;
19705;SDS011;10003;52.506;4.700;2023-08-07T05:53:09;8.30;;;3.70;;
19705;SDS011;10003;52.506;4.700;2023-08-07T05:55:39;5.03;;;2.53;;
19705;SDS011;10003;52.506;4.700;2023-08-07T05:58:10;10.73;;;3.30;;
19705;SDS011;10003;52.506;4.700;2023-08-07T06:00:38;3.27;;;1.93;;
19705;SDS011;10003;52.506;4.700;2023-08-07T06:03:07;3.03;;;2.27;;
19705;SDS011;10003;52.506;4.700;2023-08-07T06:05:35;2.60;;;1.20;;
19705;SDS011;10003;52.506;4.700;2023-08-07T06:08:04;4.50;;;2.83;;
19705;SDS011;10003;52.506;4.700;2023-08-07T06:10:32;5.27;;;2.03;;
19705;SDS011;10003;52.506;4.700;2023-08-07T06:13:01;8.70;;;3.47;;
19705;SDS011;10003;52.506;4.700;2023-08-07T06:15:32;8.43;;;2.80;;
19705;SDS011;10003;52.506;4.700;2023-08-07T06:18:00;13.37;;;3.27;;
19705;SDS011;10003;52.506;4.700;2023-08-07T06:20:29;4.97;;;3.13;;
19705;SDS011;10003;52.506;4.700;2023-08-07T06:22:58;8.33;;;2.87;;
19705;SDS011;10003;52.506;4.700;2023-08-07T06:25:26;13.07;;;5.00;;
19705;SDS011;10003;52.506;4.700;2023-08-07T06:27:55;16.43;;;4.17;;
19705;SDS011;10003;52.506;4.700;2023-08-07T06:30:23;6.27;;;4.10;;
19705;SDS011;10003;52.506;4.700;2023-08-07T06:32:54;17.97;;;2.83;;
19705;SDS011;10003;52.506;4.700;2023-08-07T06:35:26;6.23;;;1.40;;
19705;SDS011;10003;52.506;4.700;2023-08-07T06:38:03;2.73;;;2.50;;
19705;SDS011;10003;52.506;4.700;2023-08-07T06:40:34;10.10;;;4.10;;
19705;SDS011;10003;52.506;4.700;2023-08-07T06:43:04;4.70;;;2.87;;
19705;SDS011;10003;52.506;4.700;2023-08-07T06:45:35;3.07;;;2.77;;
19705;SDS011;10003;52.506;4.700;2023-08-07T06:48:05;5.50;;;2.00;;
19705;SDS011;10003;52.506;4.700;2023-08-07T06:50:34;5.37;;;3.07;;
19705;SDS011;10003;52.506;4.700;2023-08-07T06:53:02;6.83;;;2.33;;
19705;SDS011;10003;52.506;4.700;2023-08-07T06:55:31;6.07;;;3.70;;
19705;SDS011;10003;52.506;4.700;2023-08-07T06:58:00;6.33;;;3.30;;
19705;SDS011;10003;52.506;4.700;2023-08-07T07:00:29;7.00;;;2.93;;
19705;SDS011;10003;52.506;4.700;2023-08-07T07:02:57;10.83;;;3.33;;
19705;SDS011;10003;52.506;4.700;2023-08-07T07:05:27;14.37;;;4.20;;
19705;SDS011;10003;52.506;4.700;2023-08-07T07:07:57;12.63;;;3.57;;
19705;SDS011;10003;52.506;4.700;2023-08-07T07:10:25;5.30;;;2.97;;
19705;SDS011;10003;52.506;4.700;2023-08-07T07:12:54;6.20;;;3.97;;
19705;SDS011;10003;52.506;4.700;2023-08-07T07:15:22;7.73;;;2.13;;
19705;SDS011;10003;52.506;4.700;2023-08-07T07:17:51;6.63;;;2.47;;
19705;SDS011;10003;52.506;4.700;2023-08-07T07:20:20;1.40;;;1.30;;
19705;SDS011;10003;52.506;4.700;2023-08-07T07:22:50;14.50;;;3.73;;
19705;SDS011;10003;52.506;4.700;2023-08-07T07:25:18;14.80;;;3.47;;
19705;SDS011;10003;52.506;4.700;2023-08-07T07:27:47;11.80;;;4.80;;
19705;SDS011;10003;52.506;4.700;2023-08-07T07:30:15;6.67;;;3.13;;
19705;SDS011;10003;52.506;4.700;2023-08-07T07:32:44;6.87;;;2.83;;
19705;SDS011;10003;52.506;4.700;2023-08-07T07:35:13;3.23;;;2.00;;
19705;SDS011;10003;52.506;4.700;2023-08-07T07:37:41;5.90;;;2.10;;
19705;SDS011;10003;52.506;4.700;2023-08-07T07:40:11;7.97;;;2.70;;
19705;SDS011;10003;52.506;4.700;2023-08-07T07:42:40;1.87;;;1.70;;
19705;SDS011;10003;52.506;4.700;2023-08-07T07:45:08;9.57;;;2.57;;
19705;SDS011;10003;52.506;4.700;2023-08-07T07:47:37;4.27;;;3.10;;
19705;SDS011;10003;52.506;4.700;2023-08-07T07:50:07;7.53;;;3.40;;
19705;SDS011;10003;52.506;4.700;2023-08-07T07:52:35;12.20;;;3.27;;
19705;SDS011;10003;52.506;4.700;2023-08-07T07:55:04;5.67;;;2.17;;
19705;SDS011;10003;52.506;4.700;2023-08-07T07:57:35;7.57;;;2.50;;
19705;SDS011;10003;52.506;4.700;2023-08-07T08:00:04;5.43;;;2.50;;
19705;SDS011;10003;52.506;4.700;2023-08-07T08:02:36;1.83;;;1.73;;
19705;SDS011;10003;52.506;4.700;2023-08-07T08:05:08;4.80;;;2.03;;
19705;SDS011;10003;52.506;4.700;2023-08-07T08:07:39;11.33;;;2.53;;
19705;SDS011;10003;52.506;4.700;2023-08-07T08:10:07;2.63;;;1.50;;
19705;SDS011;10003;52.506;4.700;2023-08-07T08:12:37;2.63;;;1.47;;
19705;SDS011;10003;52.506;4.700;2023-08-07T08:15:06;1.27;;;1.17;;
19705;SDS011;10003;52.506;4.700;2023-08-07T08:17:38;6.50;;;2.00;;
19705;SDS011;10003;52.506;4.700;2023-08-07T08:20:07;2.67;;;1.63;;
19705;SDS011;10003;52.506;4.700;2023-08-07T08:22:35;5.93;;;2.83;;
19705;SDS011;10003;52.506;4.700;2023-08-07T08:25:04;2.17;;;1.93;;
19705;SDS011;10003;52.506;4.700;2023-08-07T08:27:33;1.27;;;1.17;;
19705;SDS011;10003;52.506;4.700;2023-08-07T08:30:06;8.33;;;1.87;;
19705;SDS011;10003;52.506;4.700;2023-08-07T08:32:35;7.47;;;2.27;;
19705;SDS011;10003;52.506;4.700;2023-08-07T08:35:04;11.27;;;2.60;;
19705;SDS011;10003;52.506;4.700;2023-08-07T08:37:33;2.57;;;2.33;;
19705;SDS011;10003;52.506;4.700;2023-08-07T08:40:01;3.60;;;1.47;;
19705;SDS011;10003;52.506;4.700;2023-08-07T08:42:30;6.80;;;2.50;;
19705;SDS011;10003;52.506;4.700;2023-08-07T08:44:59;1.60;;;1.37;;
19705;SDS011;10003;52.506;4.700;2023-08-07T08:47:31;4.27;;;1.53;;
19705;SDS011;10003;52.506;4.700;2023-08-07T08:50:03;7.67;;;3.13;;
19705;SDS011;10003;52.506;4.700;2023-08-07T08:52:32;1.53;;;1.40;;
19705;SDS011;10003;52.506;4.700;2023-08-07T08:55:01;2.43;;;2.10;;
19705;SDS011;10003;52.506;4.700;2023-08-07T08:57:30;11.27;;;2.70;;
19705;SDS011;10003;52.506;4.700;2023-08-07T08:59:58;3.40;;;1.17;;
19705;SDS011;10003;52.506;4.700;2023-08-07T09:02:28;1.63;;;1.47;;
19705;SDS011;10003;52.506;4.700;2023-08-07T09:04:58;5.93;;;2.57;;
19705;SDS011;10003;52.506;4.700;2023-08-07T09:07:27;10.33;;;1.83;;
19705;SDS011;10003;52.506;4.700;2023-08-07T09:09:56;5.77;;;3.03;;
19705;SDS011;10003;52.506;4.700;2023-08-07T09:12:26;1.60;;;1.30;;
19705;SDS011;10003;52.506;4.700;2023-08-07T09:14:56;0.60;;;0.60;;
19705;SDS011;10003;52.506;4.700;2023-08-07T09:17:26;2.67;;;1.40;;
19705;SDS011;10003;52.506;4.700;2023-08-07T09:19:55;3.63;;;1.47;;
19705;SDS011;10003;52.506;4.700;2023-08-07T09:22:26;3.23;;;1.87;;
19705;SDS011;10003;52.506;4.700;2023-08-07T09:24:54;3.40;;;1.60;;
19705;SDS011;10003;52.506;4.700;2023-08-07T09:27:26;5.37;;;1.90;;
19705;SDS011;10003;52.506;4.700;2023-08-07T09:29:55;4.07;;;1.70;;
19705;SDS011;10003;52.506;4.700;2023-08-07T09:32:24;2.33;;;1.43;;
19705;SDS011;10003;52.506;4.700;2023-08-07T09:34:54;6.43;;;2.60;;
19705;SDS011;10003;52.506;4.700;2023-08-07T09:37:23;1.97;;;1.30;;
19705;SDS011;10003;52.506;4.700;2023-08-07T09:39:52;3.17;;;1.93;;
19705;SDS011;10003;52.506;4.700;2023-08-07T09:42:22;4.60;;;0.93;;
19705;SDS011;10003;52.506;4.700;2023-08-07T09:44:50;9.43;;;2.13;;
19705;SDS011;10003;52.506;4.700;2023-08-07T09:47:19;4.70;;;1.23;;
19705;SDS011;10003;52.506;4.700;2023-08-07T09:49:47;3.23;;;1.73;;
19705;SDS011;10003;52.506;4.700;2023-08-07T09:52:16;2.87;;;1.57;;
19705;SDS011;10003;52.506;4.700;2023-08-07T09:54:44;6.83;;;2.63;;
19705;SDS011;10003;52.506;4.700;2023-08-07T09:57:14;3.87;;;1.47;;
19705;SDS011;10003;52.506;4.700;2023-08-07T09:59:43;2.67;;;1.83;;
19705;SDS011;10003;52.506;4.700;2023-08-07T10:02:19;5.20;;;2.60;;
19705;SDS011;10003;52.506;4.700;2023-08-07T10:04:48;3.30;;;1.77;;
19705;SDS011;10003;52.506;4.700;2023-08-07T10:07:18;2.03;;;1.47;;
19705;SDS011;10003;52.506;4.700;2023-08-07T10:09:47;4.13;;;2.07;;
19705;SDS011;10003;52.506;4.700;2023-08-07T10:12:17;3.17;;;1.53;;
19705;SDS011;10003;52.506;4.700;2023-08-07T10:14:47;6.37;;;1.87;;
19705;SDS011;10003;52.506;4.700;2023-08-07T10:17:16;4.13;;;2.50;;
19705;SDS011;10003;52.506;4.700;2023-08-07T10:19:47;4.10;;;1.57;;
19705;SDS011;10003;52.506;4.700;2023-08-07T10:22:16;2.23;;;1.43;;
19705;SDS011;10003;52.506;4.700;2023-08-07T10:24:46;3.30;;;1.70;;
19705;SDS011;10003;52.506;4.700;2023-08-07T10:27:17;3.37;;;1.40;;
19705;SDS011;10003;52.506;4.700;2023-08-07T10:29:47;4.33;;;1.13;;
19705;SDS011;10003;52.506;4.700;2023-08-07T10:32:17;3.10;;;1.03;;
19705;SDS011;10003;52.506;4.700;2023-08-07T10:34:47;1.83;;;0.90;;
19705;SDS011;10003;52.506;4.700;2023-08-07T10:37:31;1.40;;;1.27;;
19705;SDS011;10003;52.506;4.700;2023-08-07T10:40:00;2.43;;;1.10;;
19705;SDS011;10003;52.506;4.700;2023-08-07T10:42:34;10.93;;;2.10;;
19705;SDS011;10003;52.506;4.700;2023-08-07T10:45:18;2.97;;;1.43;;
19705;SDS011;10003;52.506;4.700;2023-08-07T10:48:01;6.13;;;2.33;;
19705;SDS011;10003;52.506;4.700;2023-08-07T10:50:30;4.70;;;2.17;;
19705;SDS011;10003;52.506;4.700;2023-08-07T10:52:59;4.10;;;2.47;;
19705;SDS011;10003;52.506;4.700;2023-08-07T10:55:31;6.60;;;2.33;;
19705;SDS011;10003;52.506;4.700;2023-08-07T10:58:03;2.17;;;1.23;;
19705;SDS011;10003;52.506;4.700;2023-08-07T11:00:32;9.93;;;2.63;;
19705;SDS011;10003;52.506;4.700;2023-08-07T11:03:01;7.53;;;2.27;;
19705;SDS011;10003;52.506;4.700;2023-08-07T11:05:30;3.60;;;0.97;;
19705;SDS011;10003;52.506;4.700;2023-08-07T11:07:58;2.73;;;1.53;;
19705;SDS011;10003;52.506;4.700;2023-08-07T11:10:27;6.77;;;2.23;;
19705;SDS011;10003;52.506;4.700;2023-08-07T11:12:57;4.00;;;2.00;;
19705;SDS011;10003;52.506;4.700;2023-08-07T11:15:28;4.30;;;1.60;;
19705;SDS011;10003;52.506;4.700;2023-08-07T11:17:56;2.63;;;1.40;;
19705;SDS011;10003;52.506;4.700;2023-08-07T11:20:25;4.80;;;1.70;;
19705;SDS011;10003;52.506;4.700;2023-08-07T11:22:54;3.00;;;1.90;;
19705;SDS011;10003;52.506;4.700;2023-08-07T11:25:23;7.53;;;2.00;;
19705;SDS011;10003;52.506;4.700;2023-08-07T11:27:51;4.30;;;1.37;;
19705;SDS011;10003;52.506;4.700;2023-08-07T11:30:20;2.50;;;1.37;;
19705;SDS011;10003;52.506;4.700;2023-08-07T11:32:50;2.73;;;1.07;;
19705;SDS011;10003;52.506;4.700;2023-08-07T11:35:18;1.97;;;1.87;;
19705;SDS011;10003;52.506;4.700;2023-08-07T11:37:48;0.57;;;0.57;;
19705;SDS011;10003;52.506;4.700;2023-08-07T11:40:17;2.87;;;1.37;;
19705;SDS011;10003;52.506;4.700;2023-08-07T11:42:45;6.30;;;3.33;;
19705;SDS011;10003;52.506;4.700;2023-08-07T11:45:14;1.10;;;1.07;;
19705;SDS011;10003;52.506;4.700;2023-08-07T11:47:43;2.47;;;1.73;;
19705;SDS011;10003;52.506;4.700;2023-08-07T11:50:13;2.77;;;1.60;;
19705;SDS011;10003;52.506;4.700;2023-08-07T11:52:43;2.63;;;1.23;;
19705;SDS011;10003;52.506;4.700;2023-08-07T11:55:13;2.97;;;1.50;;
19705;SDS011;10003;52.506;4.700;2023-08-07T11:57:42;2.53;;;1.73;;
19705;SDS011;10003;52.506;4.700;2023-08-07T12:00:11;1.63;;;1.17;;
19705;SDS011;10003;52.506;4.700;2023-08-07T12:02:44;7.97;;;2.30;;
19705;SDS011;10003;52.506;4.700;2023-08-07T12:05:14;4.43;;;1.70;;
19705;SDS011;10003;52.506;4.700;2023-08-07T12:07:43;5.47;;;1.50;;
19705;SDS011;10003;52.506;4.700;2023-08-07T12:10:12;6.10;;;2.40;;
19705;SDS011;10003;52.506;4.700;2023-08-07T12:12:42;7.83;;;1.90;;
19705;SDS011;10003;52.506;4.700;2023-08-07T12:15:11;3.43;;;1.93;;
19705;SDS011;10003;52.506;4.700;2023-08-07T12:17:39;0.70;;;0.70;;
19705;SDS011;10003;52.506;4.700;2023-08-07T12:20:08;9.27;;;2.07;;
19705;SDS011;10003;52.506;4.700;2023-08-07T12:22:39;1.23;;;1.20;;
19705;SDS011;10003;52.506;4.700;2023-08-07T12:25:10;1.17;;;0.90;;
19705;SDS011;10003;52.506;4.700;2023-08-07T12:27:38;3.90;;;1.70;;
19705;SDS011;10003;52.506;4.700;2023-08-07T12:30:07;1.07;;;0.90;;
19705;SDS011;10003;52.506;4.700;2023-08-07T12:32:36;3.13;;;1.67;;
19705;SDS011;10003;52.506;4.700;2023-08-07T12:35:05;7.40;;;1.90;;
19705;SDS011;10003;52.506;4.700;2023-08-07T12:37:39;4.10;;;1.30;;
19705;SDS011;10003;52.506;4.700;2023-08-07T12:40:08;5.47;;;1.80;;
19705;SDS011;10003;52.506;4.700;2023-08-07T12:42:40;1.63;;;1.13;;
19705;SDS011;10003;52.506;4.700;2023-08-07T12:45:09;2.67;;;1.30;;
19705;SDS011;10003;52.506;4.700;2023-08-07T12:47:38;5.27;;;1.63;;
19705;SDS011;10003;52.506;4.700;2023-08-07T12:50:08;1.73;;;1.27;;
19705;SDS011;10003;52.506;4.700;2023-08-07T12:52:37;5.20;;;2.03;;
19705;SDS011;10003;52.506;4.700;2023-08-07T12:55:07;4.17;;;1.73;;
19705;SDS011;10003;52.506;4.700;2023-08-07T12:57:36;4.33;;;1.63;;
19705;SDS011;10003;52.506;4.700;2023-08-07T13:00:05;4.07;;;2.00;;
19705;SDS011;10003;52.506;4.700;2023-08-07T13:02:36;0.80;;;0.80;;
19705;SDS011;10003;52.506;4.700;2023-08-07T13:05:05;1.10;;;1.00;;
19705;SDS011;10003;52.506;4.700;2023-08-07T13:07:35;4.23;;;1.87;;
19705;SDS011;10003;52.506;4.700;2023-08-07T13:10:04;1.90;;;1.13;;
19705;SDS011;10003;52.506;4.700;2023-08-07T13:12:34;4.00;;;1.90;;
19705;SDS011;10003;52.506;4.700;2023-08-07T13:15:06;5.23;;;2.23;;
19705;SDS011;10003;52.506;4.700;2023-08-07T13:17:36;2.10;;;1.13;;
19705;SDS011;10003;52.506;4.700;2023-08-07T13:20:05;2.20;;;1.37;;
19705;SDS011;10003;52.506;4.700;2023-08-07T13:22:34;2.37;;;1.30;;
19705;SDS011;10003;52.506;4.700;2023-08-07T13:25:03;2.37;;;1.20;;
19705;SDS011;10003;52.506;4.700;2023-08-07T13:27:31;7.90;;;1.80;;
19705;SDS011;10003;52.506;4.700;2023-08-07T13:30:02;3.97;;;1.93;;
19705;SDS011;10003;52.506;4.700;2023-08-07T13:32:31;1.50;;;1.40;;
19705;SDS011;10003;52.506;4.700;2023-08-07T13:35:00;0.93;;;0.93;;
19705;SDS011;10003;52.506;4.700;2023-08-07T13:37:29;3.10;;;2.77;;
19705;SDS011;10003;52.506;4.700;2023-08-07T13:39:58;2.43;;;1.10;;
19705;SDS011;10003;52.506;4.700;2023-08-07T13:42:29;1.27;;;1.13;;
19705;SDS011;10003;52.506;4.700;2023-08-07T13:44:58;4.43;;;1.70;;
19705;SDS011;10003;52.506;4.700;2023-08-07T13:47:31;1.87;;;1.30;;
19705;SDS011;10003;52.506;4.700;2023-08-07T13:50:00;1.80;;;1.67;;
19705;SDS011;10003;52.506;4.700;2023-08-07T13:52:28;5.17;;;1.80;;
19705;SDS011;10003;52.506;4.700;2023-08-07T13:54:57;3.97;;;1.50;;
19705;SDS011;10003;52.506;4.700;2023-08-07T13:57:26;5.37;;;1.90;;
19705;SDS011;10003;52.506;4.700;2023-08-07T13:59:54;1.97;;;1.83;;
19705;SDS011;10003;52.506;4.700;2023-08-07T14:02:23;5.57;;;1.73;;
19705;SDS011;10003;52.506;4.700;2023-08-07T14:04:53;3.03;;;1.93;;
19705;SDS011;10003;52.506;4.700;2023-08-07T14:07:23;3.63;;;1.40;;
19705;SDS011;10003;52.506;4.700;2023-08-07T14:09:52;5.30;;;1.37;;
19705;SDS011;10003;52.506;4.700;2023-08-07T14:12:20;3.07;;;2.07;;
19705;SDS011;10003;52.506;4.700;2023-08-07T14:14:49;1.70;;;1.40;;
19705;SDS011;10003;52.506;4.700;2023-08-07T14:17:17;6.17;;;2.00;;
19705;SDS011;10003;52.506;4.700;2023-08-07T14:19:46;3.53;;;1.50;;
19705;SDS011;10003;52.506;4.700;2023-08-07T14:22:16;1.67;;;1.47;;
19705;SDS011;10003;52.506;4.700;2023-08-07T14:24:44;3.50;;;1.80;;
19705;SDS011;10003;52.506;4.700;2023-08-07T14:27:13;3.53;;;1.70;;
19705;SDS011;10003;52.506;4.700;2023-08-07T14:29:42;1.97;;;1.87;;
19705;SDS011;10003;52.506;4.700;2023-08-07T14:32:11;2.83;;;1.73;;
19705;SDS011;10003;52.506;4.700;2023-08-07T14:34:43;1.13;;;0.90;;
19705;SDS011;10003;52.506;4.700;2023-08-07T14:37:13;2.93;;;2.07;;
19705;SDS011;10003;52.506;4.700;2023-08-07T14:39:43;3.27;;;1.63;;
19705;SDS011;10003;52.506;4.700;2023-08-07T14:42:11;3.30;;;1.57;;
19705;SDS011;10003;52.506;4.700;2023-08-07T14:44:40;3.07;;;1.97;;
19705;SDS011;10003;52.506;4.700;2023-08-07T14:47:08;4.47;;;1.37;;
19705;SDS011;10003;52.506;4.700;2023-08-07T14:49:37;2.43;;;1.30;;
19705;SDS011;10003;52.506;4.700;2023-08-07T14:52:06;2.63;;;1.70;;
19705;SDS011;10003;52.506;4.700;2023-08-07T14:54:34;5.27;;;1.80;;
19705;SDS011;10003;52.506;4.700;2023-08-07T14:57:04;2.93;;;2.20;;